Winter Park, FL (32789)

6:03 PM EDT on August 24, 2016 (GMT -0400)
Lake Sue Avenue | | Change Station

Elev 131 ft 28.58 °N, 81.35 °W | Updated 19 seconds ago

Clear
Clear
86.7 °F
Feels Like 95 °F
N
4.3
Wind Variable Wind from ENE
Gusts 12.0 mph

Today
High -- | Low -- °F
--% Chance of Precip.
Yesterday
High -- | Low -- °F
Precip. -- in
Pressure 30.06 in
Visibility 10.0 miles
Clouds Clear
Heat Index 95 °F
Dew Point 74 °F
Humidity 66%
Rainfall 0.07 in
Snow Depth Not available.
6:59 AM 7:55 PM
Waning Gibbous, 53% visible
METAR KORL 242153Z AUTO 06017G21KT 10SM CLR 31/22 A3006 RMK AO2 SLP180 T03060222
Pressure 30.06 in
Visibility 10.0 miles
Clouds Clear
Heat Index 95 °F
Dew Point 74 °F
Humidity 66%
Rainfall 0.07 in
Snow Depth Not available.
6:59 AM 7:55 PM
Waning Gibbous, 53% visible
METAR KORL 242153Z AUTO 06017G21KT 10SM CLR 31/22 A3006 RMK AO2 SLP180 T03060222
A tropical disturbance we've monitored since last week, may have a dangerous future in store for the southeast U.S. and Gulf coasts this weekend into next week. The National Weather Service has issued a flash flood watch for Puerto Rico and the U.S. Virgin Islands. Rainfall totals of 2-4 inches (locally higher) are expected through Wednesday night in those areas.

The National Hurricane Center says this system has a medium to high chance of development into a tropical depression or tropical storm over the next 2 to 5 days. A tight consensus of our guidance suggests the disturbance should continue in a general west or west-northwest trajectory the next several days.

10-Day Weather Forecast

Almanac

Astronomy

Aug. 24, 2016 Rise Set
Actual Time
Civil Twilight
Nautical Twilight
Astronomical Twilight
Moon
Length of Visible Light
Length of Day
Tomorrow will be .
, % of the Moon is Illuminated

Today's Extremes

State Highs State Lows

Community

WunderPhotos

Upload Photos

1,934,724 photos uploaded!

WunderBlog® & News

Nearby

Air Quality

  Air Quality AQ Index Pollutant
Not available.

Snow Depth

Station Depth Elevation

Earthquake Activity

City Distance Mag. Time & Date
Minimum magnitude displayed is 2.5.

Coastal Water Temperatures

Place Temperature

Stations

Nearby Weather Stations

Station Location Temp. Windchill Dew Point Humidity Wind Precip. Elev Updated Type
                   

Watches & Warnings

There are currently no watches in effect.